createdAt,value
2017-09-08T00:00:43.262Z,1006.78
2017-09-08T00:01:52.257Z,1006.78
2017-09-08T00:03:00.916Z,1006.72
2017-09-08T00:04:09.881Z,1006.73
2017-09-08T00:05:19.177Z,1006.71
2017-09-08T00:06:28.457Z,1006.69
2017-09-08T00:07:37.742Z,1006.65
2017-09-08T00:08:46.716Z,1006.66
2017-09-08T00:09:55.688Z,1006.61
2017-09-08T00:11:04.675Z,1006.59
2017-09-08T00:12:13.993Z,1006.59
2017-09-08T00:13:22.963Z,1006.52
2017-09-08T00:14:32.260Z,1006.54
2017-09-08T00:15:41.867Z,1006.49
2017-09-08T00:16:50.830Z,1006.44
2017-09-08T00:18:00.118Z,1006.44
2017-09-08T00:19:08.775Z,1006.39
2017-09-08T00:20:17.755Z,1006.41
2017-09-08T00:21:26.742Z,1006.35
2017-09-08T00:22:36.032Z,1006.36
2017-09-08T00:23:45.010Z,1006.38
2017-09-08T00:24:54.291Z,1006.33
2017-09-08T00:26:02.953Z,1006.32
2017-09-08T00:27:11.912Z,1006.31
2017-09-08T00:28:20.874Z,1006.31
2017-09-08T00:29:29.845Z,1006.36
2017-09-08T00:30:38.506Z,1006.29
2017-09-08T00:31:47.480Z,1006.24
2017-09-08T00:32:57.087Z,1006.24
2017-09-08T00:34:06.119Z,1006.25
2017-09-08T00:35:14.786Z,1006.2
2017-09-08T00:36:23.786Z,1006.22
2017-09-08T00:37:32.747Z,1006.19
2017-09-08T00:38:41.723Z,1006.16
2017-09-08T00:39:50.689Z,1006.18
2017-09-08T00:40:59.656Z,1006.2
2017-09-08T00:42:08.643Z,1006.2
2017-09-08T00:43:18.254Z,1006.2
2017-09-08T00:44:27.884Z,1006.24
2017-09-08T00:45:37.174Z,1006.22
2017-09-08T00:46:46.132Z,1006.19
2017-09-08T00:47:55.421Z,1006.21
2017-09-08T00:49:04.404Z,1006.19
2017-09-08T00:50:13.692Z,1006.22
2017-09-08T00:51:23.335Z,1006.21
2017-09-08T00:52:31.995Z,1006.18
2017-09-08T00:53:40.967Z,1006.17
2017-09-08T00:54:49.628Z,1006.16
2017-09-08T00:55:58.609Z,1006.15
2017-09-08T00:57:07.598Z,1006.13
2017-09-08T00:58:17.314Z,1006.08
2017-09-08T00:59:26.610Z,1006.09
2017-09-08T01:00:35.265Z,1006.08
2017-09-08T01:01:44.262Z,1006.08
2017-09-08T01:02:53.236Z,1006.11
2017-09-08T01:04:02.549Z,1006.09
2017-09-08T01:05:11.210Z,1006.06
2017-09-08T01:06:20.202Z,1006.03
2017-09-08T01:07:29.164Z,1006.03
2017-09-08T01:08:38.458Z,1006.06
2017-09-08T01:09:47.129Z,1006
2017-09-08T01:10:55.809Z,1006.02
2017-09-08T01:12:04.462Z,1005.99
2017-09-08T01:13:13.442Z,1005.97
2017-09-08T01:14:22.737Z,1005.99
2017-09-08T01:15:31.699Z,1005.94
2017-09-08T01:16:40.697Z,1005.92
2017-09-08T01:17:49.998Z,1005.87
2017-09-08T01:18:59.295Z,1005.85
2017-09-08T01:20:08.265Z,1005.8
2017-09-08T01:21:17.462Z,1005.81
2017-09-08T01:22:26.445Z,1005.78
2017-09-08T01:23:36.038Z,1005.75
2017-09-08T01:24:45.001Z,1005.73
2017-09-08T01:25:54.305Z,1005.74
2017-09-08T01:27:02.938Z,1005.76
2017-09-08T01:28:11.594Z,1005.73
2017-09-08T01:29:20.884Z,1005.74
2017-09-08T01:30:30.165Z,1005.72
2017-09-08T01:31:39.142Z,1005.74
2017-09-08T01:32:48.130Z,1005.69
2017-09-08T01:33:57.177Z,1005.63
2017-09-08T01:35:06.151Z,1005.66
2017-09-08T01:36:15.138Z,1005.67
2017-09-08T01:37:24.128Z,1005.56
2017-09-08T01:38:33.409Z,1005.55
2017-09-08T01:39:42.396Z,1005.57
2017-09-08T01:40:52.008Z,1005.52
2017-09-08T01:42:00.686Z,1005.5
2017-09-08T01:43:09.981Z,1005.52
2017-09-08T01:44:18.950Z,1005.49
2017-09-08T01:45:27.611Z,1005.45
2017-09-08T01:46:36.908Z,1005.46
2017-09-08T01:47:46.522Z,1005.44
2017-09-08T01:48:55.180Z,1005.42
2017-09-08T01:50:04.787Z,1005.38
2017-09-08T01:51:14.070Z,1005.36
2017-09-08T01:52:23.387Z,1005.33
2017-09-08T01:53:32.983Z,1005.35
2017-09-08T01:54:42.586Z,1005.3
2017-09-08T01:55:52.237Z,1005.29
2017-09-08T01:57:01.840Z,1005.3
2017-09-08T01:58:11.454Z,1005.28
2017-09-08T01:59:21.208Z,1005.24
2017-09-08T02:00:30.495Z,1005.22
2017-09-08T02:01:40.137Z,1005.19
2017-09-08T02:02:49.101Z,1005.16
2017-09-08T02:03:58.723Z,1005.13
2017-09-08T02:05:07.685Z,1005.13
2017-09-08T02:06:17.285Z,1005.13
2017-09-08T02:07:26.261Z,1005.11
2017-09-08T02:08:35.241Z,1005.15
2017-09-08T02:09:44.524Z,1005.13
2017-09-08T02:10:53.842Z,1005.15
2017-09-08T02:12:03.127Z,1005.12
2017-09-08T02:13:11.788Z,1005.09
2017-09-08T02:14:20.760Z,1005.06
2017-09-08T02:15:29.728Z,1005.05
2017-09-08T02:16:39.035Z,1005.02
2017-09-08T02:17:48.333Z,1005
2017-09-08T02:18:57.322Z,1005.04
2017-09-08T02:20:06.310Z,1004.98
2017-09-08T02:21:15.599Z,1004.98
2017-09-08T02:22:24.881Z,1004.96
2017-09-08T02:23:34.166Z,1004.94
2017-09-08T02:24:43.132Z,1004.91
2017-09-08T02:25:52.106Z,1004.89
2017-09-08T02:27:01.102Z,1004.87
2017-09-08T02:28:10.082Z,1004.76
2017-09-08T02:29:19.062Z,1004.79
2017-09-08T02:30:28.342Z,1004.76
2017-09-08T02:31:37.631Z,1004.76
2017-09-08T02:32:46.616Z,1004.77
2017-09-08T02:33:55.616Z,1004.76
2017-09-08T02:35:05.535Z,1004.71
2017-09-08T02:36:14.824Z,1004.72
2017-09-08T02:37:24.427Z,1004.68
2017-09-08T02:38:33.726Z,1004.68
2017-09-08T02:39:42.704Z,1004.64
2017-09-08T02:40:51.992Z,1004.62
2017-09-08T02:42:00.686Z,1004.54
2017-09-08T02:43:09.970Z,1004.54
2017-09-08T02:44:19.262Z,1004.51
2017-09-08T02:45:27.927Z,1004.51
2017-09-08T02:46:37.219Z,1004.48
2017-09-08T02:47:46.511Z,1004.51
2017-09-08T02:48:55.491Z,1004.46
2017-09-08T02:50:05.093Z,1004.47
2017-09-08T02:51:14.709Z,1004.52
2017-09-08T02:52:24.305Z,1004.54
2017-09-08T02:53:33.613Z,1004.54
2017-09-08T02:54:42.277Z,1004.52
2017-09-08T02:55:50.992Z,1004.51
2017-09-08T02:57:00.594Z,1004.5
2017-09-08T02:58:09.880Z,1004.48
2017-09-08T02:59:18.862Z,1004.51
2017-09-08T03:00:28.157Z,1004.47
2017-09-08T03:01:37.134Z,1004.48
2017-09-08T03:02:46.122Z,1004.46
2017-09-08T03:03:55.724Z,1004.43
2017-09-08T03:05:04.374Z,1004.47
2017-09-08T03:06:13.028Z,1004.44
2017-09-08T03:07:22.315Z,1004.44
2017-09-08T03:08:30.967Z,1004.41
2017-09-08T03:09:39.967Z,1004.39
2017-09-08T03:10:48.937Z,1004.39
2017-09-08T03:11:57.594Z,1004.36
2017-09-08T03:13:07.200Z,1004.35
2017-09-08T03:14:16.497Z,1004.36
2017-09-08T03:15:25.158Z,1004.33
2017-09-08T03:16:34.758Z,1004.27
2017-09-08T03:17:44.367Z,1004.23
2017-09-08T03:18:53.967Z,1004.19
2017-09-08T03:20:02.626Z,1004.18
2017-09-08T03:21:11.635Z,1004.18
2017-09-08T03:22:20.614Z,1004.12
2017-09-08T03:23:29.920Z,1004.12
2017-09-08T03:24:39.198Z,1004.04
2017-09-08T03:25:48.503Z,1004.03
2017-09-08T03:26:57.516Z,1003.99
2017-09-08T03:28:06.803Z,1003.95
2017-09-08T03:29:15.780Z,1003.88
2017-09-08T03:30:25.061Z,1003.91
2017-09-08T03:31:34.361Z,1003.86
2017-09-08T03:32:43.655Z,1003.88
2017-09-08T03:33:52.625Z,1003.87
2017-09-08T03:35:01.910Z,1003.89
2017-09-08T03:36:11.203Z,1003.87
2017-09-08T03:37:20.485Z,1003.83
2017-09-08T03:38:29.442Z,1003.81
2017-09-08T03:39:38.718Z,1003.76
2017-09-08T03:40:48.014Z,1003.81
2017-09-08T03:41:56.678Z,1003.78
2017-09-08T03:43:05.332Z,1003.77
2017-09-08T03:44:14.328Z,1003.77
2017-09-08T03:45:22.988Z,1003.77
2017-09-08T03:46:31.643Z,1003.77
2017-09-08T03:47:40.939Z,1003.78
2017-09-08T03:48:49.913Z,1003.77
2017-09-08T03:49:58.892Z,1003.74
2017-09-08T03:51:07.864Z,1003.75
2017-09-08T03:52:16.892Z,1003.68
2017-09-08T03:53:25.881Z,1003.68
2017-09-08T03:54:34.880Z,1003.69
2017-09-08T03:55:43.542Z,1003.66
2017-09-08T03:56:52.825Z,1003.62
2017-09-08T03:58:02.122Z,1003.63
2017-09-08T03:59:10.799Z,1003.56
2017-09-08T04:00:20.121Z,1003.56
2017-09-08T04:01:29.725Z,1003.51
2017-09-08T04:02:38.703Z,1003.58
2017-09-08T04:03:47.974Z,1003.61
2017-09-08T04:04:56.634Z,1003.56
2017-09-08T04:06:05.928Z,1003.55
2017-09-08T04:07:14.919Z,1003.55
2017-09-08T04:08:23.578Z,1003.53
2017-09-08T04:09:32.860Z,1003.51
2017-09-08T04:10:41.836Z,1003.48
2017-09-08T04:11:50.828Z,1003.41
2017-09-08T04:13:00.431Z,1003.46
2017-09-08T04:14:10.026Z,1003.41
2017-09-08T04:15:19.321Z,1003.4
2017-09-08T04:16:28.287Z,1003.38
2017-09-08T04:17:37.568Z,1003.38
2017-09-08T04:18:47.178Z,1003.36
2017-09-08T04:19:55.855Z,1003.37
2017-09-08T04:21:05.456Z,1003.34
2017-09-08T04:22:14.427Z,1003.28
2017-09-08T04:23:23.723Z,1003.33
2017-09-08T04:24:33.012Z,1003.29
2017-09-08T04:25:41.994Z,1003.29
2017-09-08T04:26:50.966Z,1003.29
2017-09-08T04:28:00.584Z,1003.25
2017-09-08T04:29:10.499Z,1003.23
2017-09-08T04:30:19.159Z,1003.23
2017-09-08T04:31:27.852Z,1003.19
2017-09-08T04:32:36.832Z,1003.21
2017-09-08T04:33:45.494Z,1003.23
2017-09-08T04:34:54.156Z,1003.22
2017-09-08T04:36:04.016Z,1003.25
2017-09-08T04:37:12.687Z,1003.24
2017-09-08T04:38:22.289Z,1003.23
2017-09-08T04:39:31.614Z,1003.23
2017-09-08T04:40:41.228Z,1003.22
2017-09-08T04:41:50.204Z,1003.19
2017-09-08T04:42:59.807Z,1003.22
2017-09-08T04:44:09.093Z,1003.18
2017-09-08T04:45:18.077Z,1003.2
2017-09-08T04:46:27.060Z,1003.17
2017-09-08T04:47:35.735Z,1003.15
2017-09-08T04:48:44.707Z,1003.17
2017-09-08T04:49:53.680Z,1003.18
2017-09-08T04:51:02.994Z,1003.2
2017-09-08T04:52:11.656Z,1003.15
2017-09-08T04:53:20.634Z,1003.15
2017-09-08T04:54:29.611Z,1003.18
2017-09-08T04:55:38.587Z,1003.16
2017-09-08T04:56:47.245Z,1003.15
2017-09-08T04:57:56.217Z,1003.15
2017-09-08T04:59:05.505Z,1003.13
2017-09-08T05:00:14.149Z,1003.11
2017-09-08T05:01:23.450Z,1003.13
2017-09-08T05:02:32.398Z,1003.1
2017-09-08T05:03:41.384Z,1003.07
2017-09-08T05:04:50.345Z,1003
2017-09-08T05:05:58.996Z,1002.97
2017-09-08T05:07:09.237Z,1002.98
2017-09-08T05:08:17.888Z,1002.96
2017-09-08T05:09:26.846Z,1002.94
2017-09-08T05:10:35.494Z,1002.97
2017-09-08T05:11:44.759Z,1002.95
2017-09-08T05:12:53.719Z,1002.91
2017-09-08T05:14:02.680Z,1002.94
2017-09-08T05:15:11.636Z,1002.96
2017-09-08T05:16:20.655Z,1002.9
2017-09-08T05:17:29.641Z,1002.91
2017-09-08T05:18:38.285Z,1002.87
2017-09-08T05:19:47.263Z,1002.87
2017-09-08T05:20:56.005Z,1002.88
2017-09-08T05:22:04.983Z,1002.84
2017-09-08T05:23:14.287Z,1002.89
2017-09-08T05:24:22.950Z,1002.91
2017-09-08T05:25:31.969Z,1002.86
2017-09-08T05:26:40.938Z,1002.83
2017-09-08T05:27:50.225Z,1002.78
2017-09-08T05:28:59.829Z,1002.79
2017-09-08T05:30:09.431Z,1002.7
2017-09-08T05:31:18.090Z,1002.78
2017-09-08T05:32:27.060Z,1002.71
2017-09-08T05:33:35.724Z,1002.74
2017-09-08T05:34:44.686Z,1002.71
2017-09-08T05:35:53.666Z,1002.7
2017-09-08T05:37:02.974Z,1002.73
2017-09-08T05:38:12.573Z,1002.75
2017-09-08T05:39:21.557Z,1002.82
2017-09-08T05:40:30.526Z,1002.81
2017-09-08T05:41:39.822Z,1002.85
2017-09-08T05:42:48.788Z,1002.84
2017-09-08T05:43:57.514Z,1002.85
2017-09-08T05:45:06.178Z,1002.89
2017-09-08T05:46:14.842Z,1002.86
2017-09-08T05:47:23.817Z,1002.85
2017-09-08T05:48:32.824Z,1002.83
2017-09-08T05:49:42.105Z,1002.82
2017-09-08T05:50:51.399Z,1002.81
2017-09-08T05:52:00.705Z,1002.85
2017-09-08T05:53:09.676Z,1002.88
2017-09-08T05:54:18.642Z,1002.88
2017-09-08T05:55:27.930Z,1002.88
2017-09-08T05:56:36.928Z,1002.88
2017-09-08T05:57:45.894Z,1002.87
2017-09-08T05:58:54.535Z,1002.84
2017-09-08T06:00:03.506Z,1002.85
2017-09-08T06:01:12.781Z,1002.81
2017-09-08T06:02:22.045Z,1002.83
2017-09-08T06:03:31.344Z,1002.81
2017-09-08T06:04:40.376Z,1002.79
2017-09-08T06:05:49.360Z,1002.71
2017-09-08T06:06:58.636Z,1002.76
2017-09-08T06:08:07.930Z,1002.73
2017-09-08T06:09:16.936Z,1002.64
2017-09-08T06:10:25.920Z,1002.62
2017-09-08T06:11:34.620Z,1002.6
2017-09-08T06:12:43.589Z,1002.59
2017-09-08T06:13:52.551Z,1002.62
2017-09-08T06:15:01.510Z,1002.65
2017-09-08T06:16:11.483Z,1002.6
2017-09-08T06:17:20.768Z,1002.63
2017-09-08T06:18:29.737Z,1002.6
2017-09-08T06:19:38.704Z,1002.64
2017-09-08T06:20:47.680Z,1002.63
2017-09-08T06:21:56.343Z,1002.6
2017-09-08T06:23:05.616Z,1002.58
2017-09-08T06:24:14.264Z,1002.56
2017-09-08T06:25:23.862Z,1002.63
2017-09-08T06:26:32.504Z,1002.59
2017-09-08T06:27:42.098Z,1002.59
2017-09-08T06:28:51.375Z,1002.61
2017-09-08T06:30:00.344Z,1002.59
2017-09-08T06:31:09.310Z,1002.59
2017-09-08T06:32:18.292Z,1002.57
2017-09-08T06:33:27.875Z,1002.54
2017-09-08T06:34:36.847Z,1002.52
2017-09-08T06:35:45.497Z,1002.52
2017-09-08T06:36:54.771Z,1002.5
2017-09-08T06:38:03.421Z,1002.45
2017-09-08T06:39:12.714Z,1002.47
2017-09-08T06:40:22.316Z,1002.43
2017-09-08T06:41:30.990Z,1002.43
2017-09-08T06:42:40.634Z,1002.42
2017-09-08T06:43:49.291Z,1002.4
2017-09-08T06:44:57.943Z,1002.34
2017-09-08T06:46:07.225Z,1002.37
2017-09-08T06:47:16.533Z,1002.33
2017-09-08T06:48:25.188Z,1002.32
2017-09-08T06:49:33.847Z,1002.32
2017-09-08T06:50:43.134Z,1002.26
2017-09-08T06:51:52.112Z,1002.27
2017-09-08T06:53:00.774Z,1002.27
2017-09-08T06:54:10.051Z,1002.27
2017-09-08T06:55:19.016Z,1002.18
2017-09-08T06:56:27.988Z,1002.17
2017-09-08T06:57:36.950Z,1002.09
2017-09-08T06:58:46.245Z,1002.17
2017-09-08T06:59:55.830Z,1002.17
2017-09-08T07:01:05.117Z,1002.16
2017-09-08T07:02:14.087Z,1002.17
2017-09-08T07:03:23.065Z,1002.16
2017-09-08T07:04:32.358Z,1002.17
2017-09-08T07:05:41.027Z,1002.17
2017-09-08T07:06:49.997Z,1002.16
2017-09-08T07:07:59.309Z,1002.14
2017-09-08T07:09:08.600Z,1002.16
2017-09-08T07:10:17.892Z,1002.18
2017-09-08T07:11:26.856Z,1002.21
2017-09-08T07:12:35.583Z,1002.17
2017-09-08T07:13:44.867Z,1002.2
2017-09-08T07:14:53.830Z,1002.16
2017-09-08T07:18:37.243Z,1002.22
2017-09-08T07:19:46.555Z,1002.21
2017-09-08T07:20:55.845Z,1002.17
2017-09-08T07:22:05.147Z,1002.13
2017-09-08T07:23:14.112Z,1002.1
2017-09-08T07:24:23.417Z,1002.05
2017-09-08T07:28:04.743Z,1002.02
2017-09-08T07:29:13.397Z,1002.02
2017-09-08T07:30:22.687Z,1001.99
2017-09-08T07:31:31.987Z,1001.98
2017-09-08T07:35:13.353Z,1002
2017-09-08T07:36:22.610Z,1001.96
2017-09-08T07:37:31.579Z,1001.93
2017-09-08T07:41:13.543Z,1001.9
